createdAt,value
2018-08-04T00:00:24.792Z,101642.38
2018-08-04T00:02:53.440Z,101634.70
2018-08-04T00:05:22.127Z,101639.99
2018-08-04T00:07:50.793Z,101641.60
2018-08-04T00:10:20.979Z,101644.08
2018-08-04T00:12:52.497Z,101646.77
2018-08-04T00:15:21.523Z,101644.55
2018-08-04T00:17:50.503Z,101638.17
2018-08-04T00:20:19.196Z,101637.16
2018-08-04T00:22:48.123Z,101636.06
2018-08-04T00:25:16.802Z,101631.80
2018-08-04T00:27:45.463Z,101633.89
2018-08-04T00:30:15.292Z,101630.91
2018-08-04T00:32:44.507Z,101629.50
2018-08-04T00:35:13.625Z,101635.81
2018-08-04T00:37:42.295Z,101627.66
2018-08-04T00:40:13.085Z,101633.30
2018-08-04T00:42:42.369Z,101629.65
2018-08-04T00:45:11.105Z,101625.00
2018-08-04T00:47:39.747Z,101622.48
2018-08-04T00:50:09.836Z,101623.61
2018-08-04T00:52:38.472Z,101623.14
2018-08-04T00:55:07.560Z,101620.63
2018-08-04T00:57:36.325Z,101620.37
2018-08-04T01:00:05.674Z,101622.08
2018-08-04T01:02:34.326Z,101612.91
2018-08-04T01:05:02.997Z,101617.67
2018-08-04T01:07:31.650Z,101612.63
2018-08-04T01:10:02.260Z,101609.02
2018-08-04T01:12:31.037Z,101615.09
2018-08-04T01:15:00.369Z,101616.96
2018-08-04T01:17:29.261Z,101613.36
2018-08-04T01:20:02.072Z,101619.23
2018-08-04T01:22:30.715Z,101615.56
2018-08-04T01:24:59.515Z,101615.27
2018-08-04T01:27:28.191Z,101621.64
2018-08-04T01:29:56.875Z,101621.81
2018-08-04T01:32:25.515Z,101623.20
2018-08-04T01:34:54.209Z,101626.09
2018-08-04T01:37:22.875Z,101621.08
2018-08-04T01:39:51.595Z,101624.30
2018-08-04T01:42:20.268Z,101621.73
2018-08-04T01:44:48.933Z,101616.18
2018-08-04T01:47:17.724Z,101625.73
2018-08-04T01:49:46.358Z,101619.31
2018-08-04T01:52:15.023Z,101618.95
2018-08-04T01:54:43.664Z,101620.42
2018-08-04T01:57:12.435Z,101618.30
2018-08-04T01:59:41.071Z,101621.53
2018-08-04T02:02:09.742Z,101623.59
2018-08-04T02:04:38.452Z,101624.03
2018-08-04T02:07:07.142Z,101631.94
2018-08-04T02:09:35.790Z,101632.02
2018-08-04T02:12:04.498Z,101636.80
2018-08-04T02:14:33.185Z,101635.76
2018-08-04T02:17:01.903Z,101637.03
2018-08-04T02:19:30.566Z,101630.97
2018-08-04T02:21:59.268Z,101631.80
2018-08-04T02:24:27.932Z,101638.30
2018-08-04T02:26:56.608Z,101632.02
2018-08-04T02:29:25.265Z,101624.11
2018-08-04T02:31:53.933Z,101624.48
2018-08-04T02:34:22.588Z,101626.11
2018-08-04T02:36:51.284Z,101622.46
2018-08-04T02:39:19.943Z,101622.45
2018-08-04T02:41:48.632Z,101628.16
2018-08-04T02:44:17.316Z,101627.72
2018-08-04T02:46:46.036Z,101624.19
2018-08-04T02:49:14.697Z,101624.83
2018-08-04T02:51:43.397Z,101623.91
2018-08-04T02:54:12.236Z,101617.45
2018-08-04T02:56:40.931Z,101617.97
2018-08-04T02:59:09.614Z,101619.30
2018-08-04T03:01:38.331Z,101611.08
2018-08-04T03:04:06.995Z,101610.59
2018-08-04T03:06:35.685Z,101619.46
2018-08-04T03:09:06.855Z,101615.50
2018-08-04T03:11:35.544Z,101610.98
2018-08-04T03:14:04.192Z,101610.92
2018-08-04T03:16:32.896Z,101616.95
2018-08-04T03:19:02.060Z,101619.68
2018-08-04T03:21:31.691Z,101626.61
2018-08-04T03:24:00.337Z,101625.05
2018-08-04T03:26:29.014Z,101628.36
2018-08-04T03:28:57.666Z,101631.57
2018-08-04T03:31:26.354Z,101628.73
2018-08-04T03:33:55.052Z,101633.17
2018-08-04T03:36:23.727Z,101625.84
2018-08-04T03:38:52.373Z,101631.42
2018-08-04T03:41:21.043Z,101626.85
2018-08-04T03:43:49.689Z,101624.92
2018-08-04T03:46:18.355Z,101624.19
2018-08-04T03:48:47.003Z,101625.89
2018-08-04T03:51:15.693Z,101620.84
2018-08-04T03:53:44.379Z,101616.39
2018-08-04T03:56:13.048Z,101622.16
2018-08-04T03:58:41.704Z,101619.64
2018-08-04T04:01:10.327Z,101627.81
2018-08-04T04:03:39.005Z,101629.67
2018-08-04T04:06:07.644Z,101631.86
2018-08-04T04:08:36.307Z,101631.25
2018-08-04T04:11:04.945Z,101625.23
2018-08-04T04:13:33.634Z,101623.08
2018-08-04T04:16:02.275Z,101619.83
2018-08-04T04:18:30.939Z,101619.57
2018-08-04T04:20:59.628Z,101615.67
2018-08-04T04:23:28.282Z,101615.12
2018-08-04T04:25:56.962Z,101621.61
2018-08-04T04:28:25.633Z,101621.92
2018-08-04T04:30:54.372Z,101618.12
2018-08-04T04:33:23.039Z,101616.95
2018-08-04T04:35:51.679Z,101620.30
2018-08-04T04:38:20.353Z,101627.86
2018-08-04T04:40:49.003Z,101620.78
2018-08-04T04:43:17.679Z,101617.81
2018-08-04T04:45:46.558Z,101624.77
2018-08-04T04:48:15.239Z,101619.41
2018-08-04T04:50:43.885Z,101617.88
2018-08-04T04:53:12.543Z,101619.94
2018-08-04T04:55:41.199Z,101619.73
2018-08-04T04:58:09.879Z,101621.51
2018-08-04T05:00:38.547Z,101619.98
2018-08-04T05:03:07.211Z,101615.75
2018-08-04T05:05:35.855Z,101616.04
2018-08-04T05:08:04.552Z,101616.09
2018-08-04T05:10:33.213Z,101615.33
2018-08-04T05:13:01.891Z,101623.28
2018-08-04T05:15:30.532Z,101619.25
2018-08-04T05:17:59.186Z,101621.70
2018-08-04T05:20:27.844Z,101621.90
2018-08-04T05:22:56.745Z,101616.79
2018-08-04T05:25:25.428Z,101618.93
2018-08-04T05:27:54.085Z,101619.08
2018-08-04T05:30:22.752Z,101617.38
2018-08-04T05:32:51.424Z,101620.75
2018-08-04T05:35:20.071Z,101617.39
2018-08-04T05:37:48.744Z,101610.66
2018-08-04T05:40:17.396Z,101618.94
2018-08-04T05:42:46.069Z,101615.80
2018-08-04T05:45:14.762Z,101615.18
2018-08-04T05:47:43.512Z,101613.98
2018-08-04T05:50:12.159Z,101616.17
2018-08-04T05:52:40.826Z,101619.77
2018-08-04T05:55:09.489Z,101617.78
2018-08-04T05:57:38.179Z,101620.86
2018-08-04T06:00:08.252Z,101621.39
2018-08-04T06:02:37.023Z,101615.51
2018-08-04T06:05:06.058Z,101616.90
2018-08-04T06:07:34.705Z,101615.26
2018-08-04T06:10:03.451Z,101615.81
2018-08-04T06:12:32.111Z,101616.40
2018-08-04T06:15:00.780Z,101617.00
2018-08-04T06:17:29.443Z,101615.08
2018-08-04T06:19:58.103Z,101614.82
2018-08-04T06:22:26.742Z,101622.98
2018-08-04T06:24:55.853Z,101630.51
2018-08-04T06:27:24.496Z,101633.32
2018-08-04T06:29:53.152Z,101631.92
2018-08-04T06:32:21.796Z,101639.45
2018-08-04T06:34:50.473Z,101632.48
2018-08-04T06:37:19.131Z,101632.50
2018-08-04T06:39:47.795Z,101640.03
2018-08-04T06:42:16.443Z,101643.08
2018-08-04T06:44:45.092Z,101634.99
2018-08-04T06:47:13.725Z,101627.25
2018-08-04T06:49:42.375Z,101624.27
2018-08-04T06:52:11.030Z,101619.30
2018-08-04T06:54:39.680Z,101618.52
2018-08-04T06:57:08.328Z,101624.76
2018-08-04T06:59:36.986Z,101627.88
2018-08-04T07:02:05.628Z,101619.52
2018-08-04T07:04:34.305Z,101611.72
2018-08-04T07:07:02.954Z,101608.91
2018-08-04T07:09:31.597Z,101613.40
2018-08-04T07:12:00.269Z,101617.89
2018-08-04T07:14:28.932Z,101618.19
2018-08-04T07:16:57.599Z,101621.80
2018-08-04T07:19:26.254Z,101623.20
2018-08-04T07:21:54.886Z,101625.18
2018-08-04T07:24:23.532Z,101622.95
2018-08-04T07:26:52.219Z,101629.36
2018-08-04T07:29:20.866Z,101629.66
2018-08-04T07:31:49.539Z,101629.09
2018-08-04T07:34:18.225Z,101629.91
2018-08-04T07:36:46.862Z,101630.17
2018-08-04T07:39:15.540Z,101642.17
2018-08-04T07:41:44.218Z,101643.04
2018-08-04T07:44:12.902Z,101651.42
2018-08-04T07:46:41.539Z,101639.41
2018-08-04T07:49:10.327Z,101635.22
2018-08-04T07:51:38.967Z,101636.33
2018-08-04T07:54:07.633Z,101633.77
2018-08-04T07:56:36.266Z,101636.48
2018-08-04T07:59:04.923Z,101633.87
2018-08-04T08:01:33.586Z,101626.78
2018-08-04T08:04:02.249Z,101628.11
2018-08-04T08:06:30.923Z,101623.54
2018-08-04T08:08:59.657Z,101623.47
2018-08-04T08:11:28.395Z,101626.16
2018-08-04T08:13:57.045Z,101623.40
2018-08-04T08:16:25.691Z,101628.33
2018-08-04T08:18:54.324Z,101638.31
2018-08-04T08:21:23.016Z,101635.05
2018-08-04T08:23:51.632Z,101634.63
2018-08-04T08:26:20.313Z,101629.94
2018-08-04T08:28:48.969Z,101631.06
2018-08-04T08:31:17.686Z,101631.97
2018-08-04T08:33:46.296Z,101630.22
2018-08-04T08:36:15.000Z,101627.07
2018-08-04T08:38:43.620Z,101632.45
2018-08-04T08:41:12.285Z,101632.63
2018-08-04T08:43:40.919Z,101627.16
2018-08-04T08:46:09.595Z,101636.77
2018-08-04T08:48:38.219Z,101631.36
2018-08-04T08:51:06.887Z,101632.80
2018-08-04T08:53:35.578Z,101638.65
2018-08-04T08:56:04.308Z,101640.85
2018-08-04T08:58:32.940Z,101637.75
2018-08-04T09:01:01.575Z,101638.58
2018-08-04T09:03:30.228Z,101637.48
2018-08-04T09:05:58.866Z,101642.40
2018-08-04T09:08:27.524Z,101637.16
2018-08-04T09:10:56.177Z,101640.52
2018-08-04T09:13:24.855Z,101635.31
2018-08-04T09:15:53.571Z,101638.75
2018-08-04T09:18:22.238Z,101632.19
2018-08-04T09:20:50.938Z,101627.14
2018-08-04T09:23:19.580Z,101624.90
2018-08-04T09:25:48.308Z,101623.73
2018-08-04T09:28:16.954Z,101616.31
2018-08-04T09:30:45.618Z,101609.56
2018-08-04T09:33:20.574Z,101616.52
2018-08-04T09:35:49.239Z,101615.80
2018-08-04T09:38:17.899Z,101617.72
2018-08-04T09:40:46.564Z,101615.27
2018-08-04T09:43:15.195Z,101615.27
2018-08-04T09:45:43.859Z,101615.59
2018-08-04T09:48:12.535Z,101615.95
2018-08-04T09:50:41.182Z,101612.02
2018-08-04T09:53:09.856Z,101605.22
2018-08-04T09:55:38.550Z,101606.73
2018-08-04T09:58:07.193Z,101612.81
2018-08-04T10:00:41.153Z,101608.84
2018-08-04T10:03:09.807Z,101603.11
2018-08-04T10:05:38.479Z,101603.64
2018-08-04T10:08:07.140Z,101599.71
2018-08-04T10:10:35.813Z,101610.45
2018-08-04T10:13:04.481Z,101608.64
2018-08-04T10:15:33.155Z,101605.75
2018-08-04T10:18:01.851Z,101599.52
2018-08-04T10:20:30.500Z,101592.61
2018-08-04T10:22:59.172Z,101593.23
2018-08-04T10:25:27.860Z,101594.65
2018-08-04T10:27:56.530Z,101594.20
2018-08-04T10:30:25.211Z,101590.42
2018-08-04T10:32:53.944Z,101586.36
2018-08-04T10:35:22.600Z,101586.94
2018-08-04T10:37:51.275Z,101582.59
2018-08-04T10:40:19.930Z,101580.31
2018-08-04T10:42:48.605Z,101582.94
2018-08-04T10:45:17.272Z,101585.63
2018-08-04T10:47:45.936Z,101576.08
2018-08-04T10:50:14.582Z,101581.17
2018-08-04T10:52:43.262Z,101572.52
2018-08-04T10:55:11.914Z,101570.99
2018-08-04T10:57:40.702Z,101577.39
2018-08-04T11:00:10.463Z,101577.36
2018-08-04T11:02:39.278Z,101575.70
2018-08-04T11:05:08.515Z,101577.97
2018-08-04T11:07:37.306Z,101574.78
2018-08-04T11:10:06.640Z,101574.73
2018-08-04T11:12:35.493Z,101574.84
2018-08-04T11:15:04.189Z,101573.95
2018-08-04T11:17:32.872Z,101564.91
2018-08-04T11:20:01.496Z,101567.06
2018-08-04T11:22:30.171Z,101573.89
2018-08-04T11:24:58.795Z,101571.10
2018-08-04T11:27:27.469Z,101565.16
2018-08-04T11:29:56.108Z,101561.64
2018-08-04T11:32:24.746Z,101568.77
2018-08-04T11:34:53.376Z,101564.05
2018-08-04T11:37:22.066Z,101563.55
2018-08-04T11:39:50.699Z,101564.95
2018-08-04T11:42:19.366Z,101562.36
2018-08-04T11:44:47.989Z,101561.34
2018-08-04T11:47:16.671Z,101559.88
2018-08-04T11:49:46.131Z,101561.87
2018-08-04T11:52:14.771Z,101555.70
2018-08-04T11:54:43.417Z,101561.06
2018-08-04T11:57:12.084Z,101553.57
2018-08-04T11:59:40.898Z,101549.95
2018-08-04T12:02:10.213Z,101546.70
2018-08-04T12:04:38.847Z,101544.81
2018-08-04T12:07:07.523Z,101547.29
2018-08-04T12:09:36.158Z,101541.20
2018-08-04T12:12:04.867Z,101543.34
2018-08-04T12:14:33.502Z,101545.45
2018-08-04T12:17:02.195Z,101543.95
2018-08-04T12:19:30.860Z,101553.13
2018-08-04T12:21:59.530Z,101551.66
2018-08-04T12:24:28.164Z,101546.30
2018-08-04T12:26:56.987Z,101545.64
2018-08-04T12:29:25.650Z,101540.17
2018-08-04T12:31:54.289Z,101541.30
2018-08-04T12:34:22.966Z,101533.43
2018-08-04T12:36:51.622Z,101534.06
2018-08-04T12:39:20.290Z,101535.91
2018-08-04T12:41:48.959Z,101529.78
2018-08-04T12:44:17.627Z,101531.81
2018-08-04T12:46:46.277Z,101522.55
2018-08-04T12:49:14.959Z,101529.30
2018-08-04T12:51:43.628Z,101531.16
2018-08-04T12:54:12.301Z,101531.13
2018-08-04T12:56:40.962Z,101534.10
2018-08-04T12:59:09.617Z,101525.59
2018-08-04T13:01:38.278Z,101525.65
2018-08-04T13:04:07.339Z,101527.02
2018-08-04T13:06:35.984Z,101523.52
2018-08-04T13:09:06.482Z,101528.33
2018-08-04T13:11:35.225Z,101529.51
2018-08-04T13:14:03.989Z,101523.41
2018-08-04T13:16:32.645Z,101519.47
2018-08-04T13:19:01.328Z,101515.41
2018-08-04T13:21:30.313Z,101512.61
2018-08-04T13:23:58.956Z,101507.97
2018-08-04T13:26:27.683Z,101504.70
2018-08-04T13:28:56.360Z,101504.02
2018-08-04T13:31:25.019Z,101500.51
2018-08-04T13:33:53.696Z,101513.47
2018-08-04T13:36:22.358Z,101513.22
2018-08-04T13:38:51.066Z,101513.16
2018-08-04T13:41:19.739Z,101502.68
2018-08-04T13:43:48.403Z,101503.34
2018-08-04T13:46:17.078Z,101494.76
2018-08-04T13:48:45.751Z,101496.33
2018-08-04T13:51:14.400Z,101495.00
2018-08-04T13:53:43.190Z,101491.77
2018-08-04T13:56:11.863Z,101499.11
2018-08-04T13:58:40.573Z,101497.01
2018-08-04T14:01:09.253Z,101487.27
2018-08-04T14:03:37.926Z,101482.84
2018-08-04T14:06:07.018Z,101492.00
2018-08-04T14:08:35.709Z,101493.42
2018-08-04T14:11:04.378Z,101493.52
2018-08-04T14:13:33.062Z,101490.65
2018-08-04T14:16:01.725Z,101495.59
2018-08-04T14:18:30.466Z,101496.04
2018-08-04T14:20:59.174Z,101491.59
2018-08-04T14:23:27.871Z,101483.63
2018-08-04T14:25:56.529Z,101486.70
2018-08-04T14:28:25.228Z,101482.58
2018-08-04T14:30:53.871Z,101494.87
2018-08-04T14:33:22.552Z,101498.93
2018-08-04T14:35:51.213Z,101494.44
2018-08-04T14:38:19.897Z,101491.64
2018-08-04T14:40:48.551Z,101489.48
2018-08-04T14:43:17.187Z,101491.91
2018-08-04T14:45:45.856Z,101482.45
2018-08-04T14:48:14.494Z,101480.28
2018-08-04T14:50:43.168Z,101480.66
2018-08-04T14:53:11.834Z,101491.77
2018-08-04T14:55:40.497Z,101498.42
2018-08-04T14:58:09.149Z,101511.23
2018-08-04T15:00:37.837Z,101514.41
2018-08-04T15:03:06.481Z,101519.33
2018-08-04T15:05:35.161Z,101518.27
2018-08-04T15:08:03.820Z,101509.88
2018-08-04T15:10:32.480Z,101511.69
2018-08-04T15:13:01.183Z,101513.20
2018-08-04T15:15:29.844Z,101512.52
2018-08-04T15:17:58.564Z,101517.36
2018-08-04T15:20:27.299Z,101518.95
2018-08-04T15:22:56.047Z,101523.74
2018-08-04T15:25:24.722Z,101525.44
2018-08-04T15:27:53.364Z,101522.86
2018-08-04T15:30:22.008Z,101526.34
2018-08-04T15:32:50.638Z,101520.14
2018-08-04T15:35:19.472Z,101524.03
2018-08-04T15:37:48.106Z,101521.97
2018-08-04T15:40:16.760Z,101524.03
2018-08-04T15:42:45.386Z,101521.14
2018-08-04T15:45:14.042Z,101518.05
2018-08-04T15:47:42.671Z,101514.30
2018-08-04T15:50:11.341Z,101516.80
2018-08-04T15:52:39.974Z,101509.62
2018-08-04T15:55:08.671Z,101514.77
2018-08-04T15:57:37.352Z,101510.06
2018-08-04T16:00:06.947Z,101508.75
2018-08-04T16:02:35.559Z,101513.45
2018-08-04T16:05:04.292Z,101507.25
2018-08-04T16:07:32.964Z,101510.19
2018-08-04T16:10:01.626Z,101510.06
2018-08-04T16:12:30.395Z,101498.03
2018-08-04T16:14:59.082Z,101498.44
2018-08-04T16:17:27.726Z,101504.56
2018-08-04T16:19:56.446Z,101507.63
2018-08-04T16:22:25.084Z,101515.80
2018-08-04T16:24:53.739Z,101509.33
2018-08-04T16:27:22.381Z,101517.01
2018-08-04T16:29:51.044Z,101522.52
2018-08-04T16:32:19.698Z,101522.59
2018-08-04T16:34:48.364Z,101524.48
2018-08-04T16:37:16.995Z,101524.61
2018-08-04T16:39:45.649Z,101538.24
2018-08-04T16:42:14.282Z,101527.19
2018-08-04T16:44:42.955Z,101526.64
2018-08-04T16:47:11.594Z,101520.75
2018-08-04T16:49:40.251Z,101525.14
2018-08-04T16:52:08.933Z,101525.67
2018-08-04T16:54:37.568Z,101530.16
2018-08-04T16:57:06.237Z,101532.39
2018-08-04T16:59:34.960Z,101533.77
2018-08-04T17:02:03.579Z,101534.39
2018-08-04T17:04:32.211Z,101543.21
2018-08-04T17:07:00.897Z,101548.60
2018-08-04T17:09:29.546Z,101550.41
2018-08-04T17:11:58.223Z,101547.45
2018-08-04T17:14:26.875Z,101542.00
2018-08-04T17:16:55.544Z,101541.59
2018-08-04T17:19:24.182Z,101543.37
2018-08-04T17:21:52.973Z,101540.08
2018-08-04T17:24:21.608Z,101541.48
2018-08-04T17:26:50.794Z,101542.86
2018-08-04T17:29:19.562Z,101545.09
2018-08-04T17:31:48.247Z,101549.94
2018-08-04T17:34:16.872Z,101554.16
2018-08-04T17:36:45.511Z,101558.45
2018-08-04T17:39:14.135Z,101560.42
2018-08-04T17:41:42.764Z,101562.79
2018-08-04T17:44:11.420Z,101556.68
2018-08-04T17:46:40.060Z,101555.33
2018-08-04T17:49:08.713Z,101556.20
2018-08-04T17:51:37.388Z,101556.84
2018-08-04T17:54:06.099Z,101556.02
2018-08-04T17:56:34.748Z,101549.02
2018-08-04T17:59:03.399Z,101558.55
2018-08-04T18:01:32.075Z,101553.55
2018-08-04T18:04:00.785Z,101557.77
2018-08-04T18:06:29.405Z,101558.64
2018-08-04T18:08:58.051Z,101566.48
2018-08-04T18:11:26.726Z,101564.27
2018-08-04T18:13:55.390Z,101565.38
2018-08-04T18:16:24.043Z,101567.06
2018-08-04T18:18:52.696Z,101568.14
2018-08-04T18:21:21.400Z,101565.66
2018-08-04T18:23:50.062Z,101566.77
2018-08-04T18:26:18.718Z,101566.47
2018-08-04T18:28:47.376Z,101559.23
2018-08-04T18:31:16.027Z,101568.98
2018-08-04T18:33:44.658Z,101561.16
2018-08-04T18:36:13.323Z,101567.59
2018-08-04T18:38:41.955Z,101569.52
2018-08-04T18:41:10.635Z,101568.39
2018-08-04T18:43:39.258Z,101576.19
2018-08-04T18:46:07.934Z,101572.56
2018-08-04T18:48:36.577Z,101572.79
2018-08-04T18:51:05.252Z,101590.92
2018-08-04T18:53:33.901Z,101584.47
2018-08-04T18:56:02.620Z,101589.51
2018-08-04T18:58:31.286Z,101590.61
2018-08-04T19:00:59.929Z,101593.65
2018-08-04T19:03:28.604Z,101595.85
2018-08-04T19:05:57.264Z,101596.09
2018-08-04T19:08:25.934Z,101604.16
2018-08-04T19:10:54.601Z,101600.19
2018-08-04T19:13:23.278Z,101600.13
2018-08-04T19:15:51.962Z,101602.00
2018-08-04T19:18:20.617Z,101601.93
2018-08-04T19:20:49.317Z,101612.19
2018-08-04T19:23:17.984Z,101607.06
2018-08-04T19:25:46.616Z,101608.69
2018-08-04T19:28:15.519Z,101608.06
2018-08-04T19:30:44.175Z,101607.48
2018-08-04T19:33:12.859Z,101612.92
2018-08-04T19:35:41.499Z,101613.34
2018-08-04T19:38:10.150Z,101619.92
2018-08-04T19:40:38.794Z,101622.91
2018-08-04T19:43:07.448Z,101624.53
2018-08-04T19:45:36.079Z,101624.17
2018-08-04T19:48:04.759Z,101623.06
2018-08-04T19:50:33.431Z,101623.54
2018-08-04T19:53:02.104Z,101613.36
2018-08-04T19:55:30.781Z,101618.84
2018-08-04T19:57:59.410Z,101620.74
2018-08-04T20:00:28.052Z,101619.63
2018-08-04T20:02:56.706Z,101621.89
2018-08-04T20:07:52.931Z,101629.36
2018-08-04T20:10:21.556Z,101627.64
2018-08-04T20:12:50.238Z,101630.38
2018-08-04T20:15:18.899Z,101632.28
2018-08-04T20:17:47.784Z,101626.16
2018-08-04T20:20:16.430Z,101629.78
2018-08-04T20:22:45.088Z,101628.10
2018-08-04T20:25:13.719Z,101626.95
2018-08-04T20:27:42.379Z,101622.42
2018-08-04T20:30:11.016Z,101624.05
2018-08-04T20:32:39.670Z,101630.10
2018-08-04T20:35:08.324Z,101638.86
2018-08-04T20:37:36.994Z,101638.52
2018-08-04T20:40:05.941Z,101634.30
2018-08-04T20:42:34.620Z,101631.23
2018-08-04T20:45:03.327Z,101626.42
2018-08-04T20:47:32.079Z,101641.36
2018-08-04T20:50:00.702Z,101639.97
2018-08-04T20:52:29.404Z,101633.86
2018-08-04T20:54:58.040Z,101631.36
2018-08-04T20:57:26.714Z,101623.52
2018-08-04T20:59:55.370Z,101624.03
2018-08-04T21:02:24.008Z,101624.20
2018-08-04T21:04:52.706Z,101623.82
2018-08-04T21:07:21.380Z,101628.54
2018-08-04T21:09:50.315Z,101628.80
2018-08-04T21:12:18.982Z,101627.08
2018-08-04T21:14:47.668Z,101627.25
2018-08-04T21:17:16.325Z,101629.62
2018-08-04T21:19:44.984Z,101629.77
2018-08-04T21:22:13.661Z,101630.59
2018-08-04T21:24:42.353Z,101630.03
2018-08-04T21:27:10.974Z,101631.92
2018-08-04T21:29:39.638Z,101639.12
2018-08-04T21:32:08.317Z,101641.07
2018-08-04T21:34:36.971Z,101634.97
2018-08-04T21:37:05.796Z,101634.41
2018-08-04T21:39:34.497Z,101651.36
2018-08-04T21:42:03.168Z,101641.20
2018-08-04T21:44:38.473Z,101638.02
2018-08-04T21:47:07.123Z,101642.08
2018-08-04T21:49:35.793Z,101641.92
2018-08-04T21:52:04.508Z,101640.31
2018-08-04T21:54:33.187Z,101647.64
2018-08-04T21:57:01.833Z,101647.70
2018-08-04T21:59:30.515Z,101649.19
2018-08-04T22:01:59.215Z,101647.08
2018-08-04T22:04:27.855Z,101649.12
2018-08-04T22:08:06.608Z,101650.13
2018-08-04T22:10:35.367Z,101652.71
2018-08-04T22:13:04.200Z,101652.06
2018-08-04T22:15:32.865Z,101654.19
2018-08-04T22:18:01.609Z,101651.45
2018-08-04T22:20:30.771Z,101655.38
2018-08-04T22:22:59.428Z,101654.50
2018-08-04T22:25:29.178Z,101660.78
2018-08-04T22:27:58.599Z,101649.61
2018-08-04T22:30:27.535Z,101650.68
2018-08-04T22:32:56.199Z,101653.41
2018-08-04T22:35:24.898Z,101647.25
2018-08-04T22:37:53.572Z,101649.11
2018-08-04T22:40:22.660Z,101641.78
2018-08-04T22:42:51.338Z,101646.73
2018-08-04T22:46:24.291Z,101647.45
2018-08-04T22:48:54.258Z,101649.39
2018-08-04T22:51:26.535Z,101654.75
2018-08-04T22:53:55.271Z,101656.46
2018-08-04T22:56:24.008Z,101659.81
2018-08-04T22:58:52.679Z,101666.19
2018-08-04T23:01:21.387Z,101665.83
2018-08-04T23:03:50.048Z,101665.28
2018-08-04T23:06:18.724Z,101666.67
2018-08-04T23:08:47.356Z,101669.95
2018-08-04T23:11:16.022Z,101665.19
2018-08-04T23:13:44.678Z,101667.64
2018-08-04T23:16:13.354Z,101665.38
2018-08-04T23:18:42.012Z,101663.87
2018-08-04T23:21:10.728Z,101666.32
2018-08-04T23:23:39.376Z,101668.70
2018-08-04T23:26:08.072Z,101671.66
2018-08-04T23:28:36.711Z,101670.16
2018-08-04T23:31:05.400Z,101672.74
2018-08-04T23:33:34.034Z,101677.64
2018-08-04T23:36:02.712Z,101677.79
2018-08-04T23:38:31.359Z,101671.95
2018-08-04T23:41:00.018Z,101680.14
2018-08-04T23:43:28.661Z,101673.04
2018-08-04T23:45:57.325Z,101669.50
2018-08-04T23:48:25.970Z,101670.66
2018-08-04T23:50:54.655Z,101674.56
2018-08-04T23:53:23.339Z,101673.02
2018-08-04T23:55:52.003Z,101676.48
2018-08-04T23:58:20.653Z,101675.72
